createdAt,value
2023-01-18T00:00:41.610Z,6.30
2023-01-18T00:03:13.572Z,6.00
2023-01-18T00:05:41.861Z,5.90
2023-01-18T00:08:13.606Z,5.40
2023-01-18T00:10:40.974Z,5.90
2023-01-18T00:13:08.268Z,5.80
2023-01-18T00:15:36.409Z,6.10
2023-01-18T00:18:04.154Z,6.00
2023-01-18T00:20:31.975Z,5.80
2023-01-18T00:23:02.358Z,6.00
2023-01-18T00:25:30.515Z,5.90
2023-01-18T00:27:57.813Z,5.70
2023-01-18T00:30:27.504Z,5.70
2023-01-18T00:32:58.273Z,5.20
2023-01-18T00:35:26.160Z,5.80
2023-01-18T00:37:54.182Z,5.70
2023-01-18T00:40:22.460Z,5.80
2023-01-18T00:43:08.630Z,5.90
2023-01-18T00:45:35.978Z,5.80
2023-01-18T00:48:03.494Z,5.60
2023-01-18T00:50:30.573Z,6.20
2023-01-18T00:53:00.181Z,5.80
2023-01-18T00:55:27.912Z,6.00
2023-01-18T00:57:55.062Z,6.50
2023-01-18T01:00:23.653Z,6.10
2023-01-18T01:02:51.768Z,7.00
2023-01-18T01:05:44.607Z,6.40
2023-01-18T01:08:17.294Z,6.70
2023-01-18T01:10:49.138Z,6.00
2023-01-18T01:13:37.430Z,5.90
2023-01-18T01:16:30.638Z,6.80
2023-01-18T01:19:17.001Z,6.60
2023-01-18T01:22:02.752Z,6.30
2023-01-18T01:24:49.183Z,5.90
2023-01-18T01:27:17.434Z,5.80
2023-01-18T01:29:44.357Z,6.50
2023-01-18T01:32:13.579Z,5.80
2023-01-18T01:34:41.058Z,6.20
2023-01-18T01:37:08.148Z,6.60
2023-01-18T01:39:34.955Z,6.40
2023-01-18T01:42:01.940Z,6.20
2023-01-18T01:44:30.736Z,6.30
2023-01-18T01:47:12.013Z,6.60
2023-01-18T01:49:43.074Z,6.60
2023-01-18T01:52:15.334Z,6.60
2023-01-18T01:54:59.901Z,6.30
2023-01-18T01:57:32.316Z,6.50
2023-01-18T02:00:14.640Z,6.80
2023-01-18T02:02:46.761Z,5.90
2023-01-18T02:05:16.386Z,6.20
2023-01-18T02:07:43.775Z,6.50
2023-01-18T02:10:11.550Z,6.70
2023-01-18T02:12:41.096Z,6.70
2023-01-18T02:15:08.793Z,6.80
2023-01-18T02:18:00.735Z,6.90
2023-01-18T02:20:48.641Z,7.10
2023-01-18T02:23:34.991Z,7.00
2023-01-18T02:26:23.928Z,7.10
2023-01-18T02:29:05.838Z,6.40
2023-01-18T02:31:44.856Z,6.70
2023-01-18T02:34:27.840Z,6.40
2023-01-18T02:37:05.011Z,6.20
2023-01-18T02:39:55.126Z,6.70
2023-01-18T02:42:42.905Z,6.40
2023-01-18T02:45:51.849Z,5.60
2023-01-18T02:48:23.923Z,6.60
2023-01-18T02:50:51.803Z,5.90
2023-01-18T02:53:19.049Z,6.60
2023-01-18T02:55:58.650Z,6.20
2023-01-18T02:58:57.251Z,6.50
2023-01-18T03:01:29.880Z,5.90
2023-01-18T03:04:03.704Z,6.10
2023-01-18T03:06:31.343Z,7.00
2023-01-18T03:08:59.885Z,6.20
2023-01-18T03:11:38.844Z,6.40
2023-01-18T03:14:11.759Z,6.40
2023-01-18T03:16:59.923Z,6.00
2023-01-18T03:19:55.474Z,6.10
2023-01-18T03:22:45.573Z,6.60
2023-01-18T03:25:16.091Z,6.90
2023-01-18T03:28:04.246Z,6.60
2023-01-18T03:30:52.452Z,6.20
2023-01-18T03:33:41.654Z,6.80
2023-01-18T03:36:22.277Z,6.90
2023-01-18T03:38:56.345Z,7.50
2023-01-18T03:41:27.947Z,7.00
2023-01-18T03:44:00.208Z,7.30
2023-01-18T03:46:31.174Z,6.40
2023-01-18T03:48:58.846Z,6.60
2023-01-18T03:52:03.945Z,6.90
2023-01-18T03:54:37.936Z,7.30
2023-01-18T03:57:12.904Z,6.80
2023-01-18T03:59:40.251Z,6.60
2023-01-18T04:02:08.904Z,6.60
2023-01-18T04:04:43.401Z,6.80
2023-01-18T04:07:11.027Z,6.60
2023-01-18T04:09:38.401Z,6.50
2023-01-18T04:12:05.619Z,6.80
2023-01-18T04:14:32.486Z,6.60
2023-01-18T04:16:59.680Z,7.10
2023-01-18T04:19:28.193Z,6.80
2023-01-18T04:21:55.255Z,7.50
2023-01-18T04:24:22.975Z,6.40
2023-01-18T04:26:50.604Z,7.30
2023-01-18T04:29:21.569Z,7.40
2023-01-18T04:31:48.785Z,7.20
2023-01-18T04:34:15.511Z,7.20
2023-01-18T04:36:43.751Z,7.40
2023-01-18T04:39:13.141Z,8.10
2023-01-18T04:41:40.150Z,8.70
2023-01-18T04:44:07.575Z,7.90
2023-01-18T04:46:35.312Z,8.30
2023-01-18T04:49:02.280Z,8.10
2023-01-18T04:51:31.271Z,8.80
2023-01-18T04:53:59.919Z,8.30
2023-01-18T04:56:27.107Z,8.40
2023-01-18T04:58:54.689Z,9.20
2023-01-18T05:01:22.863Z,9.40
2023-01-18T05:03:49.896Z,9.00
2023-01-18T05:06:19.946Z,9.50
2023-01-18T05:08:47.109Z,9.70
2023-01-18T05:11:15.977Z,9.10
2023-01-18T05:13:43.895Z,9.20
2023-01-18T05:16:15.424Z,8.70
2023-01-18T05:18:43.648Z,9.50
2023-01-18T05:21:11.214Z,12.10
2023-01-18T05:23:40.189Z,11.80
2023-01-18T05:26:14.624Z,13.50
2023-01-18T05:28:42.438Z,12.60
2023-01-18T05:31:10.020Z,11.60
2023-01-18T05:33:37.157Z,12.60
2023-01-18T05:36:04.488Z,11.20
2023-01-18T05:38:31.677Z,9.70
2023-01-18T05:40:59.055Z,9.20
2023-01-18T05:43:28.192Z,8.80
2023-01-18T05:45:55.476Z,9.30
2023-01-18T05:48:22.723Z,8.70
2023-01-18T05:50:49.980Z,7.90
2023-01-18T05:53:19.438Z,7.80
2023-01-18T05:55:59.819Z,7.80
2023-01-18T05:58:27.798Z,8.20
2023-01-18T06:00:55.384Z,7.50
2023-01-18T06:03:23.741Z,7.80
2023-01-18T06:05:51.525Z,7.70
2023-01-18T06:08:19.190Z,7.70
2023-01-18T06:10:53.295Z,7.30
2023-01-18T06:13:20.779Z,7.00
2023-01-18T06:15:49.723Z,7.90
2023-01-18T06:18:17.162Z,7.60
2023-01-18T06:20:44.530Z,8.20
2023-01-18T06:23:11.606Z,7.30
2023-01-18T06:25:38.836Z,7.80
2023-01-18T06:28:06.222Z,7.80
2023-01-18T06:30:34.620Z,6.90
2023-01-18T06:33:06.662Z,7.80
2023-01-18T06:35:34.747Z,7.20
2023-01-18T06:38:03.193Z,8.00
2023-01-18T06:40:30.560Z,9.60
2023-01-18T06:42:58.720Z,8.00
2023-01-18T06:45:28.382Z,8.90
2023-01-18T06:47:55.677Z,8.70
2023-01-18T06:50:23.024Z,8.10
2023-01-18T06:52:51.440Z,8.30
2023-01-18T06:55:19.996Z,8.20
2023-01-18T06:57:47.890Z,8.60
2023-01-18T07:00:17.577Z,10.50
2023-01-18T07:02:44.876Z,10.60
2023-01-18T07:05:12.251Z,10.20
2023-01-18T07:07:39.094Z,9.10
2023-01-18T07:10:06.770Z,7.90
2023-01-18T07:12:34.092Z,8.00
2023-01-18T07:15:09.871Z,8.20
2023-01-18T07:17:47.106Z,8.70
2023-01-18T07:20:16.045Z,8.30
2023-01-18T07:22:43.662Z,8.60
2023-01-18T07:25:14.108Z,8.10
2023-01-18T07:27:43.617Z,8.10
2023-01-18T07:30:13.167Z,7.60
2023-01-18T07:32:48.557Z,7.90
2023-01-18T07:35:17.195Z,8.00
2023-01-18T07:37:49.301Z,7.20
2023-01-18T07:40:16.541Z,6.80
2023-01-18T07:42:44.223Z,7.40
2023-01-18T07:45:13.831Z,7.70
2023-01-18T07:47:46.212Z,7.90
2023-01-18T07:50:14.351Z,6.90
2023-01-18T07:52:43.510Z,7.50
2023-01-18T07:55:10.336Z,6.60
2023-01-18T07:57:37.612Z,7.00
2023-01-18T08:00:07.141Z,6.50
2023-01-18T08:02:35.207Z,8.10
2023-01-18T08:05:03.608Z,8.40
2023-01-18T08:07:33.169Z,7.40
2023-01-18T08:09:59.923Z,7.10
2023-01-18T08:12:27.153Z,7.00
2023-01-18T08:14:54.712Z,7.40
2023-01-18T08:17:22.235Z,7.50
2023-01-18T08:19:49.392Z,7.60
2023-01-18T08:22:16.738Z,6.70
2023-01-18T08:24:44.096Z,7.10
2023-01-18T08:27:10.955Z,7.50
2023-01-18T08:29:38.109Z,8.40
2023-01-18T08:32:05.563Z,10.00
2023-01-18T08:34:32.160Z,8.00
2023-01-18T08:36:59.121Z,9.60
2023-01-18T08:39:26.224Z,8.70
2023-01-18T08:41:52.988Z,8.30
2023-01-18T08:44:20.460Z,7.30
2023-01-18T08:46:47.490Z,6.90
2023-01-18T08:49:15.210Z,8.50
2023-01-18T08:51:42.552Z,10.30
2023-01-18T08:54:09.336Z,8.80
2023-01-18T08:56:36.808Z,8.40
2023-01-18T08:59:08.782Z,7.00
2023-01-18T09:01:35.805Z,6.80
2023-01-18T09:04:02.474Z,7.60
2023-01-18T09:06:32.142Z,7.70
2023-01-18T09:08:59.581Z,7.70
2023-01-18T09:11:26.996Z,7.30
2023-01-18T09:14:00.780Z,7.20
2023-01-18T09:16:29.404Z,7.00
2023-01-18T09:18:56.404Z,6.50
2023-01-18T09:21:23.543Z,7.00
2023-01-18T09:23:50.911Z,7.00
2023-01-18T09:26:20.632Z,7.40
2023-01-18T09:28:48.891Z,7.70
2023-01-18T09:31:16.388Z,7.10
2023-01-18T09:33:52.295Z,8.50
2023-01-18T09:36:23.775Z,8.40
2023-01-18T09:38:51.150Z,9.50
2023-01-18T09:41:34.356Z,8.80
2023-01-18T09:44:07.511Z,8.20
2023-01-18T09:46:38.279Z,9.00
2023-01-18T09:49:07.882Z,8.00
2023-01-18T09:52:05.742Z,8.60
2023-01-18T09:54:51.121Z,8.40
2023-01-18T09:57:17.992Z,8.60
2023-01-18T09:59:55.240Z,7.90
2023-01-18T10:02:38.176Z,7.60
2023-01-18T10:05:10.029Z,8.00
2023-01-18T10:07:45.584Z,7.60
2023-01-18T10:10:19.148Z,7.70
2023-01-18T10:13:08.444Z,7.70
2023-01-18T10:15:36.573Z,8.10
2023-01-18T10:18:04.051Z,7.50
2023-01-18T10:20:57.843Z,8.10
2023-01-18T10:24:24.759Z,8.60
2023-01-18T10:26:58.256Z,7.70
2023-01-18T10:29:28.006Z,8.40
2023-01-18T10:32:03.259Z,8.50
2023-01-18T10:34:35.386Z,8.40
2023-01-18T10:37:14.437Z,8.00
2023-01-18T10:39:47.978Z,8.30
2023-01-18T10:42:34.214Z,7.70
2023-01-18T10:45:01.337Z,8.10
2023-01-18T10:47:28.445Z,7.60
2023-01-18T10:49:59.865Z,7.60
2023-01-18T10:52:32.129Z,8.70
2023-01-18T10:55:01.648Z,8.30
2023-01-18T10:57:36.356Z,8.00
2023-01-18T11:00:12.669Z,7.50
2023-01-18T11:02:40.259Z,7.50
2023-01-18T11:05:07.267Z,7.80
2023-01-18T11:07:34.049Z,7.80
2023-01-18T11:10:06.626Z,7.20
2023-01-18T11:12:44.344Z,8.60
2023-01-18T11:15:14.305Z,7.60
2023-01-18T11:17:46.257Z,7.90
2023-01-18T11:20:21.878Z,7.40
2023-01-18T11:23:14.229Z,7.90
2023-01-18T11:25:46.758Z,7.40
2023-01-18T11:28:26.501Z,7.30
2023-01-18T11:30:59.207Z,8.00
2023-01-18T11:33:28.357Z,7.50
2023-01-18T11:35:59.167Z,6.60
2023-01-18T11:38:34.132Z,7.50
2023-01-18T11:41:12.682Z,7.70
2023-01-18T11:43:42.489Z,7.20
2023-01-18T11:46:18.062Z,7.60
2023-01-18T11:48:50.169Z,7.40
2023-01-18T11:51:33.795Z,7.30
2023-01-18T11:54:30.757Z,6.80
2023-01-18T11:57:02.884Z,7.10
2023-01-18T11:59:42.808Z,6.90
2023-01-18T12:02:48.125Z,9.80
2023-01-18T12:05:28.219Z,11.80
2023-01-18T12:08:03.180Z,7.10
2023-01-18T12:10:48.831Z,7.00
2023-01-18T12:13:22.815Z,6.50
2023-01-18T12:16:13.579Z,6.40
2023-01-18T12:19:16.426Z,6.20
2023-01-18T12:22:22.154Z,5.90
2023-01-18T12:24:51.758Z,6.30
2023-01-18T12:27:31.977Z,7.30
2023-01-18T12:30:26.917Z,6.20
2023-01-18T12:33:06.571Z,9.00
2023-01-18T12:35:58.321Z,6.60
2023-01-18T12:38:31.627Z,6.60
2023-01-18T12:41:11.862Z,6.00
2023-01-18T12:43:47.901Z,6.40
2023-01-18T12:46:27.499Z,5.30
2023-01-18T12:49:08.178Z,4.90
2023-01-18T12:51:37.707Z,5.00
2023-01-18T12:54:19.193Z,4.90
2023-01-18T12:56:50.485Z,4.60
2023-01-18T12:59:28.872Z,4.40
2023-01-18T13:02:03.806Z,4.80
2023-01-18T13:04:42.182Z,4.60
2023-01-18T13:07:14.033Z,5.00
2023-01-18T13:09:44.346Z,5.00
2023-01-18T13:12:12.899Z,4.50
2023-01-18T13:15:20.947Z,4.80
2023-01-18T13:18:36.680Z,5.10
2023-01-18T13:21:12.290Z,4.70
2023-01-18T13:24:04.772Z,5.00
2023-01-18T13:26:34.037Z,4.70
2023-01-18T13:29:22.715Z,4.30
2023-01-18T13:31:50.284Z,5.10
2023-01-18T13:34:28.615Z,4.30
2023-01-18T13:37:13.105Z,4.80
2023-01-18T13:39:47.681Z,4.00
2023-01-18T13:42:14.414Z,4.70
2023-01-18T13:44:47.332Z,4.90
2023-01-18T13:47:39.362Z,4.90
2023-01-18T13:50:28.233Z,4.70
2023-01-18T13:53:09.944Z,4.90
2023-01-18T13:55:37.233Z,4.80
2023-01-18T13:58:04.094Z,5.10
2023-01-18T14:00:38.506Z,5.60
2023-01-18T14:03:14.552Z,5.50
2023-01-18T14:05:46.660Z,5.10
2023-01-18T14:08:26.182Z,5.30
2023-01-18T14:11:04.374Z,5.90
2023-01-18T14:13:46.069Z,5.80
2023-01-18T14:16:34.019Z,6.90
2023-01-18T14:19:17.546Z,6.80
2023-01-18T14:21:53.307Z,6.40
2023-01-18T14:25:04.723Z,6.40
2023-01-18T14:27:42.134Z,6.30
2023-01-18T14:30:25.703Z,5.60
2023-01-18T14:33:13.629Z,5.90
2023-01-18T14:35:51.889Z,6.10
2023-01-18T14:38:20.135Z,5.90
2023-01-18T14:40:53.701Z,6.10
2023-01-18T14:43:32.647Z,5.80
2023-01-18T14:46:04.687Z,6.00
2023-01-18T14:48:34.703Z,6.60
2023-01-18T14:51:02.409Z,6.00
2023-01-18T14:53:36.243Z,6.60
2023-01-18T14:56:15.057Z,6.10
2023-01-18T14:58:59.763Z,6.30
2023-01-18T15:01:28.020Z,5.90
2023-01-18T15:03:56.789Z,6.30
2023-01-18T15:06:39.955Z,6.20
2023-01-18T15:09:09.643Z,6.40
2023-01-18T15:11:38.785Z,6.60
2023-01-18T15:14:18.894Z,6.60
2023-01-18T15:16:48.909Z,6.60
2023-01-18T15:19:23.741Z,7.00
2023-01-18T15:21:51.089Z,7.20
2023-01-18T15:24:24.752Z,7.40
2023-01-18T15:26:57.162Z,7.90
2023-01-18T15:29:26.567Z,7.60
2023-01-18T15:32:13.327Z,7.60
2023-01-18T15:34:44.823Z,8.20
2023-01-18T15:37:16.639Z,7.90
2023-01-18T15:40:12.442Z,8.30
2023-01-18T15:43:04.732Z,9.20
2023-01-18T15:45:40.791Z,8.70
2023-01-18T15:48:22.424Z,9.40
2023-01-18T15:50:52.311Z,10.40
2023-01-18T15:53:32.835Z,9.90
2023-01-18T15:56:08.209Z,10.00
2023-01-18T15:58:40.129Z,9.70
2023-01-18T16:01:16.559Z,10.80
2023-01-18T16:03:49.282Z,11.50
2023-01-18T16:06:32.305Z,10.50
2023-01-18T16:09:12.027Z,10.30
2023-01-18T16:11:42.404Z,9.60
2023-01-18T16:14:24.468Z,9.80
2023-01-18T16:16:53.045Z,9.00
2023-01-18T16:19:24.839Z,9.50
2023-01-18T16:21:54.607Z,9.50
2023-01-18T16:24:32.029Z,9.60
2023-01-18T16:27:07.017Z,9.30
2023-01-18T16:30:09.114Z,9.00
2023-01-18T16:32:36.851Z,8.30
2023-01-18T16:35:13.100Z,9.70
2023-01-18T16:37:42.010Z,8.90
2023-01-18T16:40:09.596Z,7.90
2023-01-18T16:43:04.866Z,8.60
2023-01-18T16:45:35.618Z,9.00
2023-01-18T16:48:03.329Z,9.40
2023-01-18T16:50:31.219Z,7.80
2023-01-18T16:52:58.437Z,8.40
2023-01-18T16:55:25.090Z,9.80
2023-01-18T16:57:52.510Z,9.70
2023-01-18T17:00:22.309Z,9.70
2023-01-18T17:02:49.492Z,9.70
2023-01-18T17:05:17.379Z,9.80
2023-01-18T17:07:44.985Z,10.10
2023-01-18T17:10:12.311Z,11.10
2023-01-18T17:12:39.824Z,9.60
2023-01-18T17:15:07.365Z,9.20
2023-01-18T17:17:34.784Z,9.40
2023-01-18T17:20:01.646Z,10.00
2023-01-18T17:22:28.662Z,10.50
2023-01-18T17:24:55.672Z,9.60
2023-01-18T17:27:22.829Z,9.80
2023-01-18T17:29:50.133Z,10.20
2023-01-18T17:32:18.860Z,9.60
2023-01-18T17:34:45.914Z,9.60
2023-01-18T17:37:13.299Z,9.10
2023-01-18T17:39:44.093Z,9.30
2023-01-18T17:42:22.931Z,10.00
2023-01-18T17:45:02.527Z,9.20
2023-01-18T17:47:30.722Z,8.50
2023-01-18T17:49:58.636Z,8.10
2023-01-18T17:52:26.512Z,8.30
2023-01-18T17:54:53.391Z,8.70
2023-01-18T17:57:20.652Z,8.20
2023-01-18T17:59:47.435Z,8.60
2023-01-18T18:02:14.679Z,8.70
2023-01-18T18:04:41.501Z,8.50
2023-01-18T18:07:08.645Z,9.70
2023-01-18T18:09:38.703Z,8.40
2023-01-18T18:12:06.398Z,7.80
2023-01-18T18:14:37.666Z,9.60
2023-01-18T18:17:06.287Z,8.90
2023-01-18T18:19:33.571Z,7.60
2023-01-18T18:22:00.918Z,8.00
2023-01-18T18:24:27.756Z,8.50
2023-01-18T18:26:55.122Z,7.30
2023-01-18T18:29:22.225Z,8.10
2023-01-18T18:31:49.483Z,8.20
2023-01-18T18:34:16.591Z,7.60
2023-01-18T18:36:43.433Z,7.40
2023-01-18T18:39:10.699Z,7.40
2023-01-18T18:41:37.453Z,7.70
2023-01-18T18:44:04.487Z,8.00
2023-01-18T18:46:31.406Z,8.10
2023-01-18T18:48:58.668Z,8.10
2023-01-18T18:51:26.136Z,9.10
2023-01-18T18:53:53.422Z,7.90
2023-01-18T18:56:20.731Z,7.30
2023-01-18T18:58:49.012Z,7.30
2023-01-18T19:01:23.949Z,7.50
2023-01-18T19:03:52.107Z,7.60
2023-01-18T19:06:20.053Z,7.50
2023-01-18T19:08:47.477Z,7.40
2023-01-18T19:11:15.786Z,7.20
2023-01-18T19:13:43.811Z,7.20
2023-01-18T19:16:11.501Z,6.90
2023-01-18T19:18:38.309Z,7.10
2023-01-18T19:21:05.307Z,6.90
2023-01-18T19:23:32.254Z,7.20
2023-01-18T19:25:59.188Z,7.00
2023-01-18T19:28:26.258Z,7.30
2023-01-18T19:30:53.457Z,6.50
2023-01-18T19:33:20.349Z,6.40
2023-01-18T19:35:47.651Z,6.50
2023-01-18T19:38:15.148Z,6.80
2023-01-18T19:40:42.229Z,6.80
2023-01-18T19:43:09.008Z,6.90
2023-01-18T19:45:37.496Z,6.50
2023-01-18T19:48:05.137Z,6.90
2023-01-18T19:50:32.120Z,5.90
2023-01-18T19:52:59.734Z,5.90
2023-01-18T19:55:26.986Z,6.40
2023-01-18T19:57:56.971Z,6.80
2023-01-18T20:00:24.042Z,7.10
2023-01-18T20:02:51.573Z,6.50
2023-01-18T20:05:21.874Z,7.60
2023-01-18T20:07:49.389Z,6.60
2023-01-18T20:10:20.139Z,6.70
2023-01-18T20:12:48.799Z,6.60
2023-01-18T20:15:17.241Z,6.40
2023-01-18T20:17:44.012Z,6.60
2023-01-18T20:20:14.269Z,7.40
2023-01-18T20:22:46.537Z,7.10
2023-01-18T20:25:13.687Z,7.50
2023-01-18T20:27:40.685Z,6.90
2023-01-18T20:30:08.525Z,6.90
2023-01-18T20:32:35.565Z,7.00
2023-01-18T20:35:02.542Z,7.00
2023-01-18T20:37:29.753Z,6.60
2023-01-18T20:39:56.767Z,6.80
2023-01-18T20:42:24.103Z,7.50
2023-01-18T20:44:53.628Z,7.60
2023-01-18T20:47:20.500Z,7.50
2023-01-18T20:49:47.707Z,6.20
2023-01-18T20:52:14.744Z,6.80
2023-01-18T20:54:41.866Z,6.60
2023-01-18T20:57:09.638Z,7.10
2023-01-18T20:59:36.673Z,6.50
2023-01-18T21:02:03.847Z,7.00
2023-01-18T21:04:30.989Z,6.20
2023-01-18T21:06:58.101Z,6.30
2023-01-18T21:09:25.357Z,5.50
2023-01-18T21:11:52.359Z,6.20
2023-01-18T21:14:19.734Z,6.50
2023-01-18T21:16:47.175Z,6.70
2023-01-18T21:19:14.037Z,6.20
2023-01-18T21:21:41.435Z,6.00
2023-01-18T21:24:08.641Z,5.60
2023-01-18T21:26:37.640Z,5.60
2023-01-18T21:29:05.625Z,6.60
2023-01-18T21:31:32.630Z,4.90
2023-01-18T21:34:00.037Z,5.80
2023-01-18T21:36:26.995Z,5.90
2023-01-18T21:38:53.753Z,5.30
2023-01-18T21:41:39.637Z,6.20
2023-01-18T21:44:25.376Z,5.90
2023-01-18T21:46:52.792Z,5.50
2023-01-18T21:50:01.188Z,6.70
2023-01-18T21:52:45.664Z,5.30
2023-01-18T21:55:13.929Z,5.10
2023-01-18T21:57:41.099Z,5.10
2023-01-18T22:00:09.052Z,5.20
2023-01-18T22:02:36.789Z,5.80
2023-01-18T22:05:04.500Z,5.40
2023-01-18T22:07:33.899Z,5.70
2023-01-18T22:10:06.579Z,4.90
2023-01-18T22:12:35.487Z,4.90
2023-01-18T22:15:04.394Z,5.30
2023-01-18T22:17:31.297Z,5.40
2023-01-18T22:19:58.317Z,5.20
2023-01-18T22:22:25.168Z,4.90
2023-01-18T22:24:52.218Z,5.10
2023-01-18T22:27:19.410Z,5.60
2023-01-18T22:29:46.846Z,5.20
2023-01-18T22:32:13.786Z,5.70
2023-01-18T22:34:40.388Z,5.40
2023-01-18T22:37:07.666Z,5.50
2023-01-18T22:39:34.444Z,5.10
2023-01-18T22:42:01.449Z,5.20
2023-01-18T22:44:28.241Z,5.70
2023-01-18T22:46:54.951Z,4.80
2023-01-18T22:49:21.791Z,5.80
2023-01-18T22:51:48.720Z,5.20
2023-01-18T22:54:16.045Z,5.20
2023-01-18T22:56:43.020Z,5.40
2023-01-18T22:59:09.691Z,5.00
2023-01-18T23:01:36.192Z,5.30
2023-01-18T23:04:04.528Z,5.40
2023-01-18T23:06:42.086Z,5.30
2023-01-18T23:09:10.403Z,5.50
2023-01-18T23:11:37.844Z,5.30
2023-01-18T23:14:24.233Z,5.50
2023-01-18T23:17:09.565Z,5.30
2023-01-18T23:19:36.709Z,6.00
2023-01-18T23:22:07.172Z,5.30
2023-01-18T23:24:35.905Z,5.50
2023-01-18T23:27:06.992Z,4.80
2023-01-18T23:29:34.057Z,5.10
2023-01-18T23:32:01.346Z,5.20
2023-01-18T23:34:28.358Z,5.20
2023-01-18T23:36:55.185Z,5.20
2023-01-18T23:39:40.482Z,5.50
2023-01-18T23:42:25.788Z,5.20
2023-01-18T23:45:11.537Z,5.70
2023-01-18T23:47:57.272Z,5.50
2023-01-18T23:50:42.635Z,5.40
2023-01-18T23:53:31.759Z,5.90
2023-01-18T23:55:59.198Z,5.30
2023-01-18T23:58:26.587Z,5.50
